Hardin, Texas
Current Conditions -  °F | °C
As of 8:35 PM on Sunday 23 Nov 2014 (Local Time) from KBMT Reporting Station
Clear Clear  
Wind Chill: 63°   Ceiling: Unl
Heat Index: 63°   Visibility: 10mi
Dew Point: 56°   Wind: 7mph
Humidity: 80%   Direction: 210°SSW
Pressure: 29.66"   Gusts: NA
Location:  30.15°N, 94.74°W
Report Text: KBMT 240235Z AUTO 21006KT 10SM CLR 17/14 A2966 RMK AO2 T01710136
Loading
Personal Weather Stations






























Interactive Weather Map New forecast layout! Learn more

10-Day Weather Forecast

Advertisements
Track Severe Weather on mobile